Map

Track Data

SID SEASON NUMBER BASIN SUBBASIN NAME ISO_TIME NATURE LAT LON WMO_WIND WMO_PRES WMO_AGENCY TRACK_TYPE DIST2LAND LANDFALL IFLAG USA_AGENCY USA_ATCF_ID USA_LAT USA_LON USA_RECORD USA_STATUS USA_WIND USA_PRES USA_SSHS USA_R34_NE USA_R34_SE USA_R34_SW USA_R34_NW USA_R50_NE USA_R50_SE USA_R50_SW USA_R50_NW USA_R64_NE USA_R64_SE USA_R64_SW USA_R64_NW USA_POCI USA_ROCI USA_RMW USA_EYE TOKYO_LAT TOKYO_LON TOKYO_GRADE TOKYO_WIND TOKYO_PRES TOKYO_R50_DIR TOKYO_R50_LONG TOKYO_R50_SHORT TOKYO_R30_DIR TOKYO_R30_LONG TOKYO_R30_SHORT TOKYO_LAND CMA_LAT CMA_LON CMA_CAT CMA_WIND CMA_PRES HKO_LAT HKO_LON HKO_CAT HKO_WIND HKO_PRES NEWDELHI_LAT NEWDELHI_LON NEWDELHI_GRADE NEWDELHI_WIND NEWDELHI_PRES NEWDELHI_CI NEWDELHI_DP NEWDELHI_POCI REUNION_LAT REUNION_LON REUNION_TYPE REUNION_WIND REUNION_PRES REUNION_TNUM REUNION_CI REUNION_RMW REUNION_R34_NE REUNION_R34_SE REUNION_R34_SW REUNION_R34_NW REUNION_R50_NE REUNION_R50_SE REUNION_R50_SW REUNION_R50_NW REUNION_R64_NE REUNION_R64_SE REUNION_R64_SW REUNION_R64_NW BOM_LAT BOM_LON BOM_TYPE BOM_WIND BOM_PRES BOM_TNUM BOM_CI BOM_RMW BOM_R34_NE BOM_R34_SE BOM_R34_SW BOM_R34_NW BOM_R50_NE BOM_R50_SE BOM_R50_SW BOM_R50_NW BOM_R64_NE BOM_R64_SE BOM_R64_SW BOM_R64_NW BOM_ROCI BOM_POCI BOM_EYE BOM_POS_METHOD BOM_PRES_METHOD NADI_LAT NADI_LON NADI_CAT NADI_WIND NADI_PRES WELLINGTON_LAT WELLINGTON_LON WELLINGTON_WIND WELLINGTON_PRES DS824_LAT DS824_LON DS824_STAGE DS824_WIND DS824_PRES TD9636_LAT TD9636_LON TD9636_STAGE TD9636_WIND TD9636_PRES TD9635_LAT TD9635_LON TD9635_WIND TD9635_PRES TD9635_ROCI NEUMANN_LAT NEUMANN_LON NEUMANN_CLASS NEUMANN_WIND NEUMANN_PRES MLC_LAT MLC_LON MLC_CLASS MLC_WIND MLC_PRES USA_GUST BOM_GUST BOM_GUST_PER REUNION_GUST REUNION_GUST_PER USA_SEAHGT USA_SEARAD_NE USA_SEARAD_SE USA_SEARAD_SW USA_SEARAD_NW STORM_SPEED STORM_DIR
1887210N22132 1887 28 WP MM NOT_NAMED 1887-07-28 16:00:00 NR 22.0000 131.700 main 1010 1008 __________O___ -1 22.0000 131.700 7 7 278
1887210N22132 1887 28 WP MM NOT_NAMED 1887-07-28 18:00:00 NR 22.0308 131.468 main 1008 976 __________P___ -1 22.0308 131.468 7 7 279
1887210N22132 1887 28 WP MM NOT_NAMED 1887-07-28 21:00:00 NR 22.0839 131.114 main 976 933 __________P___ -1 22.0839 131.114 7 7 280
1887210N22132 1887 28 WP MM NOT_NAMED 1887-07-29 00:00:00 NR 22.1557 130.742 main 933 891 __________P___ -1 22.1557 130.742 7 7 284
1887210N22132 1887 28 WP MM NOT_NAMED 1887-07-29 03:00:00 NR 22.2574 130.342 main 891 881 __________P___ -1 22.2574 130.342 7 8 286
1887210N22132 1887 28 WP MM NOT_NAMED 1887-07-29 04:00:00 NR 22.3000 130.200 main 881 848 __________O___ -1 22.3000 130.200 7 9 289
1887210N22132 1887 28 WP MM NOT_NAMED 1887-07-29 06:00:00 NR 22.3996 129.904 main 848 792 __________P___ -1 22.3996 129.904 7 9 292
1887210N22132 1887 28 WP MM NOT_NAMED 1887-07-29 09:00:00 NR 22.5804 129.434 main 792 737 __________P___ -1 22.5804 129.434 7 10 294
1887210N22132 1887 28 WP MM NOT_NAMED 1887-07-29 12:00:00 NR 22.7904 128.947 main 737 691 __________P___ -1 22.7904 128.947 7 10 296
1887210N22132 1887 28 WP MM NOT_NAMED 1887-07-29 15:00:00 NR 23.0205 128.460 main 691 669 __________P___ -1 23.0205 128.460 7 10 297
1887210N22132 1887 28 WP MM NOT_NAMED 1887-07-29 16:00:00 NR 23.1000 128.300 main 669 634 __________O___ -1 23.1000 128.300 7 10 297
1887210N22132 1887 28 WP MM NOT_NAMED 1887-07-29 18:00:00 NR 23.2527 127.971 main 634 579 __________P___ -1 23.2527 127.971 7 10 298
1887210N22132 1887 28 WP MM NOT_NAMED 1887-07-29 21:00:00 NR 23.4944 127.483 main 579 525 __________P___ -1 23.4944 127.483 7 10 300
1887210N22132 1887 28 WP MM NOT_NAMED 1887-07-30 00:00:00 NR 23.7482 127.024 main 525 478 __________P___ -1 23.7482 127.024 7 9 303
1887210N22132 1887 28 WP MM NOT_NAMED 1887-07-30 03:00:00 NR 24.0110 126.619 main 478 465 __________P___ -1 24.0110 126.619 7 9 306
1887210N22132 1887 28 WP MM NOT_NAMED 1887-07-30 04:00:00 NR 24.1000 126.500 main 465 441 __________O___ -1 24.1000 126.500 3 8 312
1887210N22132 1887 28 WP MM NOT_NAMED 1887-07-30 06:00:00 NR 24.2798 126.285 main 441 405 __________P___ -1 24.2798 126.285 3 8 316
1887210N22132 1887 28 WP MM NOT_NAMED 1887-07-30 09:00:00 NR 24.5562 126.020 main 405 383 __________P___ -1 24.5562 126.020 3 7 322
1887210N22132 1887 28 WP MM NOT_NAMED 1887-07-30 12:00:00 NR 24.8353 125.811 main 383 362 __________P___ -1 24.8353 125.811 3 7 329
1887210N22132 1887 28 WP MM NOT_NAMED 1887-07-30 15:00:00 NR 25.1103 125.647 main 362 362 __________P___ -1 25.1103 125.647 3 6 333
1887210N22132 1887 28 WP MM NOT_NAMED 1887-07-30 16:00:00 NR 25.2000 125.600 main 362 353 __________O___ -1 25.2000 125.600 4 6 333
1887210N22132 1887 28 WP MM NOT_NAMED 1887-07-30 18:00:00 NR 25.3670 125.504 main 354 346 __________P___ -1 25.3670 125.504 4 5 336
1887210N22132 1887 28 WP MM NOT_NAMED 1887-07-30 21:00:00 NR 25.6111 125.393 main 348 340 __________P___ -1 25.6111 125.393 4 5 340
1887210N22132 1887 28 WP MM NOT_NAMED 1887-07-31 00:00:00 NR 25.8561 125.306 main 346 339 __________P___ -1 25.8561 125.306 4 5 343
1887210N22132 1887 28 WP MM NOT_NAMED 1887-07-31 03:00:00 NR 26.1111 125.227 main 343 343 __________P___ -1 26.1111 125.227 4 5 344
1887210N22132 1887 28 WP MM NOT_NAMED 1887-07-31 04:00:00 NR 26.2000 125.200 main 347 342 __________O___ -1 26.2000 125.200 4 6 341
1887210N22132 1887 28 WP MM NOT_NAMED 1887-07-31 06:00:00 NR 26.3939 125.115 main 347 347 __________P___ -1 26.3939 125.115 4 6 339
1887210N22132 1887 28 WP MM NOT_NAMED 1887-07-31 09:00:00 NR 26.6974 124.988 main 355 352 __________P___ -1 26.6974 124.988 4 6 341
1887210N22132 1887 28 WP MM NOT_NAMED 1887-07-31 12:00:00 NR 27.0050 124.879 main 355 333 __________P___ -1 27.0050 124.879 4 6 346
1887210N22132 1887 28 WP MM NOT_NAMED 1887-07-31 15:00:00 NR 27.3042 124.810 main 333 329 __________P___ -1 27.3042 124.810 4 6 350
1887210N22132 1887 28 WP MM NOT_NAMED 1887-07-31 16:00:00 NR 27.4000 124.800 main 329 323 __________O___ -1 27.4000 124.800 4 6 357
1887210N22132 1887 28 WP MM NOT_NAMED 1887-07-31 18:00:00 NR 27.5837 124.802 main 323 314 __________P___ -1 27.5837 124.802 4 5 5
1887210N22132 1887 28 WP MM NOT_NAMED 1887-07-31 21:00:00 NR 27.8424 124.852 main 323 308 __________P___ -1 27.8424 124.852 4 5 14
1887210N22132 1887 28 WP MM NOT_NAMED 1887-08-01 00:00:00 NR 28.0865 124.944 main 308 308 __________P___ -1 28.0865 124.944 4 5 21
1887210N22132 1887 28 WP MM NOT_NAMED 1887-08-01 03:00:00 NR 28.3222 125.059 main 318 314 __________P___ -1 28.3222 125.059 4 5 24
1887210N22132 1887 28 WP MM NOT_NAMED 1887-08-01 04:00:00 NR 28.4000 125.100 main 314 __________O___ -1 28.4000 125.100 4 5 28

Digital Typhoon Data and Search

About IBTrACS Database

This database is a web-friendly format of International Best Track Archive for Climate Stewardship (IBTrACS), a global best track data archive curated by NOAA dating back to 1842.

Updated: 2021-10-21